createdAt,value
2018-09-14T00:00:19.610Z,22.81
2018-09-14T00:01:23.044Z,22.83
2018-09-14T00:02:26.467Z,22.84
2018-09-14T00:03:29.884Z,22.79
2018-09-14T00:04:33.371Z,22.85
2018-09-14T00:05:36.742Z,22.86
2018-09-14T00:06:40.157Z,22.86
2018-09-14T00:07:43.562Z,22.87
2018-09-14T00:08:46.944Z,22.86
2018-09-14T00:09:50.414Z,22.87
2018-09-14T00:10:53.810Z,22.88
2018-09-14T00:11:57.293Z,22.87
2018-09-14T00:13:00.718Z,22.86
2018-09-14T00:14:04.175Z,22.85
2018-09-14T00:15:07.628Z,22.85
2018-09-14T00:16:11.053Z,22.85
2018-09-14T00:17:14.483Z,22.85
2018-09-14T00:18:17.895Z,22.86
2018-09-14T00:19:21.264Z,22.86
2018-09-14T00:20:24.677Z,22.87
2018-09-14T00:21:28.077Z,22.86
2018-09-14T00:22:31.488Z,22.86
2018-09-14T00:23:34.945Z,22.85
2018-09-14T00:24:38.339Z,22.87
2018-09-14T00:25:41.727Z,22.87
2018-09-14T00:26:45.150Z,22.87
2018-09-14T00:27:48.658Z,22.87
2018-09-14T00:28:52.058Z,22.86
2018-09-14T00:29:55.449Z,22.86
2018-09-14T00:30:58.941Z,22.87
2018-09-14T00:32:02.314Z,22.87
2018-09-14T00:33:05.866Z,22.86
2018-09-14T00:34:09.437Z,22.86
2018-09-14T00:35:12.836Z,22.84
2018-09-14T00:36:16.238Z,22.86
2018-09-14T00:37:19.807Z,22.85
2018-09-14T00:38:23.173Z,22.85
2018-09-14T00:39:26.533Z,22.85
2018-09-14T00:40:29.963Z,22.82
2018-09-14T00:41:33.383Z,22.88
2018-09-14T00:42:36.862Z,22.84
2018-09-14T00:43:40.252Z,22.90
2018-09-14T00:44:43.617Z,22.90
2018-09-14T00:45:46.978Z,22.91
2018-09-14T00:46:50.368Z,22.89
2018-09-14T00:47:53.764Z,22.92
2018-09-14T00:48:57.199Z,22.93
2018-09-14T00:50:00.654Z,22.94
2018-09-14T00:51:04.102Z,22.93
2018-09-14T00:52:07.536Z,22.95
2018-09-14T00:53:10.934Z,22.94
2018-09-14T00:54:14.337Z,22.96
2018-09-14T00:55:17.728Z,22.96
2018-09-14T00:56:21.139Z,22.96
2018-09-14T00:57:24.490Z,22.95
2018-09-14T00:58:27.904Z,22.93
2018-09-14T00:59:31.270Z,22.94
2018-09-14T01:00:34.729Z,22.94
2018-09-14T01:01:38.162Z,22.93
2018-09-14T01:02:41.570Z,22.94
2018-09-14T01:03:44.950Z,22.95
2018-09-14T01:04:48.328Z,22.94
2018-09-14T01:05:51.702Z,22.95
2018-09-14T01:06:55.093Z,22.96
2018-09-14T01:07:58.482Z,22.96
2018-09-14T01:09:01.881Z,22.95
2018-09-14T01:10:06.566Z,22.95
2018-09-14T01:11:09.926Z,22.96
2018-09-14T01:12:13.333Z,22.95
2018-09-14T01:13:16.776Z,22.95
2018-09-14T01:14:20.171Z,22.94
2018-09-14T01:15:23.549Z,22.96
2018-09-14T01:16:26.941Z,22.96
2018-09-14T01:17:30.320Z,22.95
2018-09-14T01:18:33.909Z,22.96
2018-09-14T01:19:37.356Z,22.95
2018-09-14T01:20:40.732Z,22.95
2018-09-14T01:21:44.094Z,22.93
2018-09-14T01:22:47.507Z,22.93
2018-09-14T01:23:50.994Z,22.92
2018-09-14T01:24:54.415Z,22.93
2018-09-14T01:25:57.792Z,22.93
2018-09-14T01:27:01.216Z,22.88
2018-09-14T01:28:04.609Z,22.93
2018-09-14T01:29:08.016Z,22.93
2018-09-14T01:30:11.464Z,22.92
2018-09-14T01:31:14.780Z,22.93
2018-09-14T01:32:18.220Z,22.93
2018-09-14T01:33:21.637Z,22.92
2018-09-14T01:34:25.051Z,22.94
2018-09-14T01:35:33.848Z,22.92
2018-09-14T01:36:37.293Z,22.91
2018-09-14T01:37:40.769Z,22.91
2018-09-14T01:38:44.169Z,22.90
2018-09-14T01:39:47.561Z,22.91
2018-09-14T01:40:50.966Z,22.89
2018-09-14T01:41:54.345Z,22.92
2018-09-14T01:42:57.720Z,22.89
2018-09-14T01:44:01.105Z,22.90
2018-09-14T01:45:04.623Z,22.90
2018-09-14T01:46:08.365Z,22.89
2018-09-14T01:47:11.792Z,22.88
2018-09-14T01:48:15.173Z,22.87
2018-09-14T01:49:18.604Z,22.88
2018-09-14T01:50:22.043Z,22.88
2018-09-14T01:51:25.656Z,22.89
2018-09-14T01:52:29.049Z,22.86
2018-09-14T01:53:32.410Z,22.90
2018-09-14T01:54:35.828Z,22.90
2018-09-14T01:55:39.215Z,22.92
2018-09-14T01:56:42.918Z,22.91
2018-09-14T01:57:46.305Z,22.91
2018-09-14T01:58:49.746Z,22.91
2018-09-14T01:59:53.132Z,22.92
2018-09-14T02:00:56.706Z,22.90
2018-09-14T02:02:00.141Z,22.90
2018-09-14T02:03:03.523Z,22.92
2018-09-14T02:04:07.008Z,22.90
2018-09-14T02:05:10.433Z,22.90
2018-09-14T02:06:14.132Z,22.89
2018-09-14T02:07:17.520Z,22.91
2018-09-14T02:08:21.023Z,22.91
2018-09-14T02:09:24.454Z,22.92
2018-09-14T02:10:27.868Z,22.88
2018-09-14T02:11:31.263Z,22.90
2018-09-14T02:12:34.655Z,22.89
2018-09-14T02:13:38.053Z,22.88
2018-09-14T02:14:41.412Z,22.89
2018-09-14T02:15:44.831Z,22.89
2018-09-14T02:16:48.254Z,22.90
2018-09-14T02:17:51.648Z,22.90
2018-09-14T02:18:55.055Z,22.87
2018-09-14T02:19:58.466Z,22.87
2018-09-14T02:21:02.554Z,22.86
2018-09-14T02:22:06.216Z,22.84
2018-09-14T02:23:09.593Z,22.84
2018-09-14T02:24:12.960Z,22.83
2018-09-14T02:25:16.326Z,22.81
2018-09-14T02:26:19.996Z,22.80
2018-09-14T02:27:23.452Z,22.79
2018-09-14T02:28:26.838Z,22.77
2018-09-14T02:29:30.243Z,22.77
2018-09-14T02:30:33.676Z,22.76
2018-09-14T02:31:37.145Z,22.77
2018-09-14T02:32:40.579Z,22.77
2018-09-14T02:33:43.930Z,22.78
2018-09-14T02:34:47.304Z,22.79
2018-09-14T02:35:50.706Z,22.79
2018-09-14T02:36:54.086Z,22.80
2018-09-14T02:37:57.489Z,22.80
2018-09-14T02:39:00.902Z,22.81
2018-09-14T02:40:04.386Z,22.82
2018-09-14T02:41:07.823Z,22.75
2018-09-14T02:42:11.189Z,22.80
2018-09-14T02:43:14.624Z,22.79
2018-09-14T02:44:18.024Z,22.80
2018-09-14T02:45:21.406Z,22.79
2018-09-14T02:46:24.817Z,22.78
2018-09-14T02:47:28.210Z,22.78
2018-09-14T02:48:31.659Z,22.78
2018-09-14T02:49:35.078Z,22.77
2018-09-14T02:50:38.527Z,22.77
2018-09-14T02:51:41.964Z,22.76
2018-09-14T02:52:45.392Z,22.76
2018-09-14T02:53:48.871Z,22.77
2018-09-14T02:54:52.334Z,22.77
2018-09-14T02:55:55.713Z,22.77
2018-09-14T02:56:59.252Z,22.77
2018-09-14T02:58:02.695Z,22.76
2018-09-14T02:59:06.236Z,22.77
2018-09-14T03:00:09.704Z,22.76
2018-09-14T03:01:13.113Z,22.77
2018-09-14T03:02:16.524Z,22.79
2018-09-14T03:03:19.986Z,22.78
2018-09-14T03:04:23.424Z,22.78
2018-09-14T03:05:26.808Z,22.78
2018-09-14T03:06:30.268Z,22.79
2018-09-14T03:07:34.631Z,22.79
2018-09-14T03:08:38.101Z,22.80
2018-09-14T03:09:41.479Z,22.78
2018-09-14T03:10:44.886Z,22.78
2018-09-14T03:11:48.450Z,22.78
2018-09-14T03:12:51.868Z,22.78
2018-09-14T03:13:55.304Z,22.79
2018-09-14T03:14:58.747Z,22.79
2018-09-14T03:16:02.145Z,22.79
2018-09-14T03:17:05.615Z,22.80
2018-09-14T03:18:09.004Z,22.81
2018-09-14T03:19:12.397Z,22.82
2018-09-14T03:20:15.802Z,22.83
2018-09-14T03:21:19.185Z,22.83
2018-09-14T03:22:22.580Z,22.83
2018-09-14T03:23:25.970Z,22.83
2018-09-14T03:24:29.360Z,22.83
2018-09-14T03:25:32.776Z,22.83
2018-09-14T03:26:36.152Z,22.81
2018-09-14T03:27:39.575Z,22.81
2018-09-14T03:28:42.957Z,22.80
2018-09-14T03:29:46.374Z,22.81
2018-09-14T03:30:49.834Z,22.82
2018-09-14T03:31:53.237Z,22.81
2018-09-14T03:32:56.649Z,22.81
2018-09-14T03:34:00.020Z,22.80
2018-09-14T03:35:03.482Z,22.80
2018-09-14T03:36:07.509Z,22.81
2018-09-14T03:37:10.909Z,22.81
2018-09-14T03:38:14.316Z,22.82
2018-09-14T03:39:17.784Z,22.82
2018-09-14T03:40:21.178Z,22.82
2018-09-14T03:41:24.593Z,22.81
2018-09-14T03:42:27.982Z,22.81
2018-09-14T03:43:31.356Z,22.81
2018-09-14T03:44:35.030Z,22.81
2018-09-14T03:45:38.461Z,22.79
2018-09-14T03:46:41.875Z,22.79
2018-09-14T03:47:45.249Z,22.77
2018-09-14T03:48:48.837Z,22.76
2018-09-14T03:49:52.224Z,22.74
2018-09-14T03:50:55.622Z,22.73
2018-09-14T03:51:59.045Z,22.72
2018-09-14T03:53:02.613Z,22.71
2018-09-14T03:54:06.361Z,22.69
2018-09-14T03:55:09.773Z,22.68
2018-09-14T03:56:13.178Z,22.68
2018-09-14T03:57:16.643Z,22.65
2018-09-14T03:58:20.005Z,22.65
2018-09-14T03:59:23.402Z,22.65
2018-09-14T04:00:26.829Z,22.67
2018-09-14T04:01:30.209Z,22.66
2018-09-14T04:02:33.630Z,22.66
2018-09-14T04:03:37.075Z,22.64
2018-09-14T04:04:40.461Z,22.65
2018-09-14T04:05:43.883Z,22.65
2018-09-14T04:06:47.284Z,22.65
2018-09-14T04:07:50.757Z,22.64
2018-09-14T04:08:54.115Z,22.63
2018-09-14T04:09:57.490Z,22.61
2018-09-14T04:11:00.877Z,22.61
2018-09-14T04:12:04.427Z,22.60
2018-09-14T04:13:07.835Z,22.59
2018-09-14T04:14:11.225Z,22.59
2018-09-14T04:15:14.620Z,22.59
2018-09-14T04:16:18.043Z,22.58
2018-09-14T04:17:21.480Z,22.59
2018-09-14T04:18:24.931Z,22.57
2018-09-14T04:19:28.339Z,22.56
2018-09-14T04:20:31.720Z,22.56
2018-09-14T04:21:36.448Z,22.56
2018-09-14T04:22:39.802Z,22.57
2018-09-14T04:23:43.357Z,22.56
2018-09-14T04:24:46.666Z,22.55
2018-09-14T04:25:50.083Z,22.54
2018-09-14T04:26:53.507Z,22.55
2018-09-14T04:27:56.933Z,22.54
2018-09-14T04:29:00.876Z,22.54
2018-09-14T04:30:04.753Z,22.52
2018-09-14T04:31:08.141Z,22.52
2018-09-14T04:32:11.549Z,22.52
2018-09-14T04:33:14.945Z,22.51
2018-09-14T04:34:18.352Z,22.50
2018-09-14T04:35:21.742Z,22.50
2018-09-14T04:36:25.170Z,22.45
2018-09-14T04:37:28.570Z,22.49
2018-09-14T04:38:32.098Z,22.49
2018-09-14T04:39:35.454Z,22.43
2018-09-14T04:40:38.886Z,22.47
2018-09-14T04:41:42.304Z,22.47
2018-09-14T04:42:45.704Z,22.48
2018-09-14T04:43:49.704Z,22.47
2018-09-14T04:44:53.096Z,22.42
2018-09-14T04:45:56.489Z,22.46
2018-09-14T04:46:59.916Z,22.45
2018-09-14T04:48:03.533Z,22.45
2018-09-14T04:49:07.299Z,22.44
2018-09-14T04:50:10.695Z,22.45
2018-09-14T04:51:14.152Z,22.41
2018-09-14T04:52:17.524Z,22.46
2018-09-14T04:53:20.944Z,22.49
2018-09-14T04:54:24.371Z,22.50
2018-09-14T04:55:27.772Z,22.50
2018-09-14T04:56:31.171Z,22.51
2018-09-14T04:57:34.615Z,22.53
2018-09-14T04:58:38.106Z,22.53
2018-09-14T04:59:41.485Z,22.54
2018-09-14T05:00:44.893Z,22.53
2018-09-14T05:01:48.276Z,22.53
2018-09-14T05:02:51.633Z,22.52
2018-09-14T05:03:55.088Z,22.49
2018-09-14T05:04:58.457Z,22.46
2018-09-14T05:06:01.836Z,22.50
2018-09-14T05:07:05.263Z,22.50
2018-09-14T05:08:08.685Z,22.50
2018-09-14T05:09:12.112Z,22.52
2018-09-14T05:10:15.540Z,22.52
2018-09-14T05:11:18.948Z,22.54
2018-09-14T05:12:22.373Z,22.54
2018-09-14T05:13:25.915Z,22.52
2018-09-14T05:14:29.442Z,22.51
2018-09-14T05:15:32.840Z,22.46
2018-09-14T05:16:36.258Z,22.50
2018-09-14T05:17:39.646Z,22.48
2018-09-14T05:18:43.084Z,22.48
2018-09-14T05:19:46.518Z,22.47
2018-09-14T05:20:49.956Z,22.45
2018-09-14T05:21:53.343Z,22.43
2018-09-14T05:22:56.751Z,22.41
2018-09-14T05:24:00.153Z,22.39
2018-09-14T05:25:03.634Z,22.36
2018-09-14T05:26:07.062Z,22.32
2018-09-14T05:27:10.530Z,22.27
2018-09-14T05:28:13.958Z,22.20
2018-09-14T05:29:17.366Z,22.15
2018-09-14T05:30:20.824Z,22.11
2018-09-14T05:31:24.308Z,22.07
2018-09-14T05:32:27.718Z,22.00
2018-09-14T05:33:31.137Z,21.96
2018-09-14T05:34:34.510Z,21.92
2018-09-14T05:35:37.938Z,21.88
2018-09-14T05:36:41.362Z,21.85
2018-09-14T05:37:44.771Z,21.81
2018-09-14T05:38:48.173Z,21.76
2018-09-14T05:39:51.580Z,21.68
2018-09-14T05:40:54.990Z,21.73
2018-09-14T05:41:58.401Z,21.66
2018-09-14T05:43:01.822Z,21.69
2018-09-14T05:44:05.424Z,21.67
2018-09-14T05:45:09.386Z,21.64
2018-09-14T05:46:12.826Z,21.63
2018-09-14T05:47:16.221Z,21.62
2018-09-14T05:48:19.657Z,21.60
2018-09-14T05:49:23.002Z,21.59
2018-09-14T05:50:26.675Z,21.59
2018-09-14T05:51:30.095Z,21.57
2018-09-14T05:52:34.318Z,21.55
2018-09-14T05:53:37.738Z,21.57
2018-09-14T05:54:41.176Z,21.55
2018-09-14T05:55:44.557Z,21.55
2018-09-14T05:56:47.925Z,21.55
2018-09-14T05:57:51.307Z,21.50
2018-09-14T05:58:54.721Z,21.53
2018-09-14T05:59:58.129Z,21.54
2018-09-14T06:01:01.533Z,21.52
2018-09-14T06:02:04.982Z,21.54
2018-09-14T06:03:08.419Z,21.57
2018-09-14T06:04:11.847Z,21.58
2018-09-14T06:05:15.329Z,21.60
2018-09-14T06:06:18.711Z,21.63
2018-09-14T06:07:22.086Z,21.65
2018-09-14T06:08:25.492Z,21.65
2018-09-14T06:09:28.862Z,21.66
2018-09-14T06:10:32.230Z,21.69
2018-09-14T06:11:35.678Z,21.66
2018-09-14T06:12:39.108Z,21.73
2018-09-14T06:13:42.523Z,21.75
2018-09-14T06:14:45.880Z,21.76
2018-09-14T06:15:49.445Z,21.77
2018-09-14T06:16:52.878Z,21.76
2018-09-14T06:17:56.272Z,21.79
2018-09-14T06:18:59.765Z,21.79
2018-09-14T06:20:03.770Z,21.80
2018-09-14T06:21:07.207Z,21.80
2018-09-14T06:22:10.604Z,21.82
2018-09-14T06:23:14.056Z,21.83
2018-09-14T06:24:17.463Z,21.83
2018-09-14T06:25:20.873Z,21.83
2018-09-14T06:26:24.258Z,21.84
2018-09-14T06:27:27.656Z,21.83
2018-09-14T06:28:31.042Z,21.85
2018-09-14T06:29:34.448Z,21.88
2018-09-14T06:30:37.939Z,21.87
2018-09-14T06:31:41.308Z,21.94
2018-09-14T06:32:44.730Z,21.94
2018-09-14T06:33:48.194Z,21.93
2018-09-14T06:34:51.586Z,21.95
2018-09-14T06:35:54.984Z,21.93
2018-09-14T06:36:58.387Z,21.93
2018-09-14T06:38:01.738Z,21.93
2018-09-14T06:39:08.094Z,21.91
2018-09-14T06:40:11.507Z,21.89
2018-09-14T06:41:14.888Z,21.84
2018-09-14T06:42:18.336Z,21.87
2018-09-14T06:43:21.750Z,21.85
2018-09-14T06:44:25.142Z,21.85
2018-09-14T06:45:28.573Z,21.82
2018-09-14T06:46:31.983Z,21.81
2018-09-14T06:47:35.401Z,21.81
2018-09-14T06:48:38.796Z,21.79
2018-09-14T06:49:42.287Z,21.78
2018-09-14T06:50:45.666Z,21.78
2018-09-14T06:51:49.143Z,21.77
2018-09-14T06:52:52.591Z,21.75
2018-09-14T06:53:56.000Z,21.75
2018-09-14T06:54:59.439Z,21.74
2018-09-14T06:56:03.299Z,21.73
2018-09-14T06:57:06.805Z,21.71
2018-09-14T06:58:10.234Z,21.68
2018-09-14T06:59:13.616Z,21.71
2018-09-14T07:00:17.236Z,21.70
2018-09-14T07:01:20.586Z,21.69
2018-09-14T07:02:24.014Z,21.69
2018-09-14T07:03:27.412Z,21.68
2018-09-14T07:04:30.808Z,21.66
2018-09-14T07:05:34.201Z,21.62
2018-09-14T07:06:37.574Z,21.65
2018-09-14T07:07:40.981Z,21.65
2018-09-14T07:08:44.360Z,21.60
2018-09-14T07:09:47.746Z,21.64
2018-09-14T07:10:51.199Z,21.63
2018-09-14T07:11:54.600Z,21.62
2018-09-14T07:12:58.011Z,21.61
2018-09-14T07:14:01.421Z,21.61
2018-09-14T07:15:04.937Z,21.57
2018-09-14T07:16:08.450Z,21.56
2018-09-14T07:17:11.848Z,21.58
2018-09-14T07:18:15.245Z,21.60
2018-09-14T07:19:18.648Z,21.59
2018-09-14T07:20:22.102Z,21.58
2018-09-14T07:21:25.538Z,21.57
2018-09-14T07:22:28.976Z,21.49
2018-09-14T07:23:32.428Z,21.48
2018-09-14T07:24:35.874Z,21.47
2018-09-14T07:25:39.328Z,21.42
2018-09-14T07:26:42.739Z,21.48
2018-09-14T07:27:46.164Z,21.48
2018-09-14T07:28:49.894Z,21.48
2018-09-14T07:29:53.526Z,21.48
2018-09-14T07:30:56.932Z,21.50
2018-09-14T07:32:00.332Z,21.51
2018-09-14T07:33:03.814Z,21.51
2018-09-14T07:34:07.244Z,21.52
2018-09-14T07:35:10.657Z,21.49
2018-09-14T07:36:14.344Z,21.55
2018-09-14T07:37:17.717Z,21.56
2018-09-14T07:38:21.152Z,21.57
2018-09-14T07:39:24.534Z,21.58
2018-09-14T07:40:28.035Z,21.59
2018-09-14T07:41:31.435Z,21.60
2018-09-14T07:42:34.887Z,21.62
2018-09-14T07:43:38.269Z,21.62
2018-09-14T07:44:41.660Z,21.63
2018-09-14T07:45:45.071Z,21.63
2018-09-14T07:46:48.479Z,21.64
2018-09-14T07:47:51.884Z,21.65
2018-09-14T07:48:55.333Z,21.64
2018-09-14T07:49:58.723Z,21.65
2018-09-14T07:51:02.122Z,21.66
2018-09-14T07:52:06.033Z,21.67
2018-09-14T07:53:09.394Z,21.67
2018-09-14T07:54:12.796Z,21.67
2018-09-14T07:55:16.248Z,21.68
2018-09-14T07:56:19.623Z,21.68
2018-09-14T07:57:23.053Z,21.68
2018-09-14T07:58:26.481Z,21.69
2018-09-14T07:59:29.938Z,21.69
2018-09-14T08:00:33.424Z,21.70
2018-09-14T08:01:36.872Z,21.69
2018-09-14T08:02:40.271Z,21.70
2018-09-14T08:03:43.677Z,21.68
2018-09-14T08:04:47.084Z,21.70
2018-09-14T08:05:50.512Z,21.72
2018-09-14T08:06:53.955Z,21.70
2018-09-14T08:07:57.362Z,21.72
2018-09-14T08:09:00.779Z,21.73
2018-09-14T08:10:04.272Z,21.74
2018-09-14T08:11:07.684Z,21.73
2018-09-14T08:12:11.139Z,21.74
2018-09-14T08:13:14.606Z,21.72
2018-09-14T08:14:18.228Z,21.73
2018-09-14T08:15:21.694Z,21.74
2018-09-14T08:16:25.077Z,21.77
2018-09-14T08:17:28.517Z,21.74
2018-09-14T08:18:31.948Z,21.79
2018-09-14T08:19:35.404Z,21.79
2018-09-14T08:20:38.828Z,21.80
2018-09-14T08:21:42.397Z,21.80
2018-09-14T08:22:46.019Z,21.80
2018-09-14T08:23:49.442Z,21.78
2018-09-14T08:24:52.879Z,21.80
2018-09-14T08:25:56.429Z,21.79
2018-09-14T08:26:59.830Z,21.79
2018-09-14T08:28:04.450Z,21.78
2018-09-14T08:29:07.869Z,21.77
2018-09-14T08:30:11.289Z,21.78
2018-09-14T08:31:14.662Z,21.76
2018-09-14T08:32:18.052Z,21.76
2018-09-14T08:33:21.495Z,21.75
2018-09-14T08:34:24.932Z,21.75
2018-09-14T08:35:28.291Z,21.74
2018-09-14T08:36:31.691Z,21.73
2018-09-14T08:37:35.095Z,21.72
2018-09-14T08:38:38.679Z,21.71
2018-09-14T08:39:42.088Z,21.72
2018-09-14T08:40:45.510Z,21.70
2018-09-14T08:41:48.881Z,21.70
2018-09-14T08:42:52.336Z,21.69
2018-09-14T08:43:55.768Z,21.70
2018-09-14T08:44:59.137Z,21.69
2018-09-14T08:46:02.532Z,21.68
2018-09-14T08:47:06.240Z,21.69
2018-09-14T08:48:09.662Z,21.69
2018-09-14T08:49:13.055Z,21.69
2018-09-14T08:50:16.486Z,21.66
2018-09-14T08:51:19.896Z,21.64
2018-09-14T08:52:23.301Z,21.69
2018-09-14T08:53:26.690Z,21.70
2018-09-14T08:54:30.115Z,21.69
2018-09-14T08:55:33.545Z,21.69
2018-09-14T08:56:36.974Z,21.70
2018-09-14T08:57:40.353Z,21.72
2018-09-14T08:58:43.753Z,21.73
2018-09-14T08:59:47.246Z,21.73
2018-09-14T09:00:50.647Z,21.73
2018-09-14T09:01:54.037Z,21.74
2018-09-14T09:02:57.417Z,21.73
2018-09-14T09:04:01.006Z,21.73
2018-09-14T09:05:04.592Z,21.73
2018-09-14T09:06:08.015Z,21.69
2018-09-14T09:07:11.875Z,21.73
2018-09-14T09:08:15.222Z,21.71
2018-09-14T09:09:19.034Z,21.71
2018-09-14T09:10:22.716Z,21.64
2018-09-14T09:11:26.388Z,21.71
2018-09-14T09:12:29.791Z,21.70
2018-09-14T09:13:33.197Z,21.70
2018-09-14T09:14:36.632Z,21.66
2018-09-14T09:15:40.057Z,21.67
2018-09-14T09:16:43.728Z,21.70
2018-09-14T09:17:47.290Z,21.70
2018-09-14T09:18:50.725Z,21.69
2018-09-14T09:19:54.160Z,21.70
2018-09-14T09:20:57.582Z,21.69
2018-09-14T09:22:01.060Z,21.70
2018-09-14T09:23:04.660Z,21.69
2018-09-14T09:24:08.052Z,21.69
2018-09-14T09:25:11.473Z,21.69
2018-09-14T09:26:14.871Z,21.70
2018-09-14T09:27:18.264Z,21.69
2018-09-14T09:28:21.651Z,21.69
2018-09-14T09:29:25.054Z,21.69
2018-09-14T09:30:28.447Z,21.67
2018-09-14T09:31:31.873Z,21.70
2018-09-14T09:32:35.292Z,21.71
2018-09-14T09:33:38.713Z,21.70
2018-09-14T09:34:42.115Z,21.70
2018-09-14T09:35:45.522Z,21.70
2018-09-14T09:36:49.163Z,21.69
2018-09-14T09:37:52.558Z,21.70
2018-09-14T09:38:56.300Z,21.70
2018-09-14T09:40:00.297Z,21.69
2018-09-14T09:41:05.590Z,21.69
2018-09-14T09:42:09.231Z,21.69
2018-09-14T09:43:12.691Z,21.66
2018-09-14T09:44:16.067Z,21.69
2018-09-14T09:45:19.465Z,21.70
2018-09-14T09:46:22.911Z,21.70
2018-09-14T09:47:26.316Z,21.71
2018-09-14T09:48:29.804Z,21.69
2018-09-14T09:49:33.224Z,21.70
2018-09-14T09:50:36.644Z,21.69
2018-09-14T09:51:40.161Z,21.68
2018-09-14T09:52:43.614Z,21.69
2018-09-14T09:53:47.006Z,21.70
2018-09-14T09:54:50.373Z,21.65
2018-09-14T09:55:53.799Z,21.68
2018-09-14T09:56:57.247Z,21.69
2018-09-14T09:58:00.641Z,21.68
2018-09-14T09:59:04.110Z,21.68
2018-09-14T10:00:11.730Z,21.64
2018-09-14T10:01:20.387Z,21.64
2018-09-14T10:02:29.186Z,21.64
2018-09-14T10:03:37.811Z,21.68
2018-09-14T10:04:45.340Z,21.68
2018-09-14T10:06:26.930Z,21.66
2018-09-14T10:07:30.361Z,21.66
2018-09-14T10:08:33.798Z,21.67
2018-09-14T10:09:37.186Z,21.67
2018-09-14T10:10:40.546Z,21.66
2018-09-14T10:11:44.003Z,21.67
2018-09-14T10:12:47.419Z,21.66
2018-09-14T10:13:50.852Z,21.66
2018-09-14T10:14:54.418Z,21.65
2018-09-14T10:15:57.815Z,21.66
2018-09-14T10:17:01.240Z,21.66
2018-09-14T10:18:04.715Z,21.62
2018-09-14T10:19:08.221Z,21.65
2018-09-14T10:20:11.632Z,21.65
2018-09-14T10:21:15.203Z,21.66
2018-09-14T10:22:18.541Z,21.61
2018-09-14T10:23:21.997Z,21.65
2018-09-14T10:24:25.384Z,21.64
2018-09-14T10:25:28.774Z,21.65
2018-09-14T10:26:32.189Z,21.64
2018-09-14T10:27:35.651Z,21.66
2018-09-14T10:28:39.137Z,21.65
2018-09-14T10:29:42.636Z,21.60
2018-09-14T10:30:46.508Z,21.64
2018-09-14T10:31:49.897Z,21.65
2018-09-14T10:32:53.295Z,21.61
2018-09-14T10:33:56.693Z,21.63
2018-09-14T10:35:00.163Z,21.64
2018-09-14T10:36:03.841Z,21.64
2018-09-14T10:37:07.320Z,21.64
2018-09-14T10:38:10.723Z,21.63
2018-09-14T10:39:14.106Z,21.64
2018-09-14T10:40:17.639Z,21.62
2018-09-14T10:41:21.012Z,21.63
2018-09-14T10:42:24.507Z,21.64
2018-09-14T10:43:27.974Z,21.59
2018-09-14T10:44:31.395Z,21.63
2018-09-14T10:45:34.837Z,21.63
2018-09-14T10:46:38.280Z,21.64
2018-09-14T10:47:41.687Z,21.63
2018-09-14T10:48:45.104Z,21.62
2018-09-14T10:49:48.619Z,21.63
2018-09-14T10:50:52.026Z,21.58
2018-09-14T10:51:55.412Z,21.60
2018-09-14T10:52:58.774Z,21.62
2018-09-14T10:54:02.253Z,21.63
2018-09-14T10:55:05.774Z,21.61
2018-09-14T10:56:09.192Z,21.61
2018-09-14T10:57:12.820Z,21.61
2018-09-14T10:58:16.219Z,21.58
2018-09-14T10:59:19.590Z,21.61
2018-09-14T11:00:23.008Z,21.61
2018-09-14T11:01:26.397Z,21.61
2018-09-14T11:02:29.835Z,21.61
2018-09-14T11:03:33.233Z,21.58
2018-09-14T11:04:37.201Z,21.60
2018-09-14T11:05:40.616Z,21.61
2018-09-14T11:06:44.096Z,21.61
2018-09-14T11:07:47.483Z,21.61
2018-09-14T11:08:50.990Z,21.61
2018-09-14T11:09:54.471Z,21.65
2018-09-14T11:10:57.881Z,21.65
2018-09-14T11:12:01.267Z,21.60
2018-09-14T11:13:04.775Z,21.65
2018-09-14T11:14:08.775Z,21.63
2018-09-14T11:15:12.185Z,21.66
2018-09-14T11:16:15.627Z,21.61
2018-09-14T11:17:19.071Z,21.64
2018-09-14T11:18:22.723Z,21.63
2018-09-14T11:19:26.148Z,21.56
2018-09-14T11:20:30.151Z,21.60
2018-09-14T11:21:33.752Z,21.59
2018-09-14T11:22:37.399Z,21.56
2018-09-14T11:23:40.841Z,21.49
2018-09-14T11:24:44.375Z,21.52
2018-09-14T11:25:47.729Z,21.52
2018-09-14T11:26:51.128Z,21.51
2018-09-14T11:27:54.660Z,21.54
2018-09-14T11:28:58.121Z,21.60
2018-09-14T11:30:01.523Z,21.59
2018-09-14T11:31:04.999Z,21.60
2018-09-14T11:32:08.425Z,21.60
2018-09-14T11:33:11.793Z,21.59
2018-09-14T11:34:15.186Z,21.64
2018-09-14T11:35:18.610Z,21.66
2018-09-14T11:36:22.035Z,21.68
2018-09-14T11:37:25.553Z,21.70
2018-09-14T11:38:29.097Z,21.71
2018-09-14T11:39:32.507Z,21.73
2018-09-14T11:40:35.960Z,21.73
2018-09-14T11:41:39.664Z,21.74
2018-09-14T11:42:43.050Z,21.74
2018-09-14T11:43:46.449Z,21.73
2018-09-14T11:44:49.931Z,21.73
2018-09-14T11:45:53.420Z,21.69
2018-09-14T11:46:56.861Z,21.74
2018-09-14T11:48:00.292Z,21.76
2018-09-14T11:49:03.716Z,21.75
2018-09-14T11:50:07.157Z,21.76
2018-09-14T11:51:10.559Z,21.75
2018-09-14T11:52:13.980Z,21.77
2018-09-14T11:53:17.405Z,21.76
2018-09-14T11:54:20.937Z,21.76
2018-09-14T11:55:24.289Z,21.76
2018-09-14T11:56:27.715Z,21.76
2018-09-14T11:57:31.122Z,21.76
2018-09-14T11:58:34.561Z,21.75
2018-09-14T11:59:38.064Z,21.75
2018-09-14T12:00:41.520Z,21.76
2018-09-14T12:01:44.915Z,21.75
2018-09-14T12:02:48.328Z,21.73
2018-09-14T12:03:51.731Z,21.73
2018-09-14T12:04:56.406Z,21.71
2018-09-14T12:05:59.887Z,21.70
2018-09-14T12:07:03.355Z,21.70
2018-09-14T12:08:06.925Z,21.70
2018-09-14T12:09:11.900Z,21.72
2018-09-14T12:10:15.295Z,21.70
2018-09-14T12:11:18.677Z,21.69
2018-09-14T12:12:26.126Z,21.68
2018-09-14T12:13:30.917Z,21.68
2018-09-14T12:14:35.676Z,21.67
2018-09-14T12:15:40.366Z,21.62
2018-09-14T12:16:43.817Z,21.66
2018-09-14T12:17:47.236Z,21.62
2018-09-14T12:18:50.787Z,21.65
2018-09-14T12:19:54.196Z,21.66
2018-09-14T12:20:57.599Z,21.65
2018-09-14T12:22:00.997Z,21.65
2018-09-14T12:23:04.773Z,21.62
2018-09-14T12:24:08.221Z,21.65
2018-09-14T12:25:11.661Z,21.65
2018-09-14T12:26:15.065Z,21.63
2018-09-14T12:27:18.468Z,21.64
2018-09-14T12:28:21.911Z,21.65
2018-09-14T12:29:26.506Z,21.64
2018-09-14T12:30:29.888Z,21.68
2018-09-14T12:31:33.315Z,21.71
2018-09-14T12:32:36.754Z,21.71
2018-09-14T12:33:40.176Z,21.75
2018-09-14T12:34:43.585Z,21.77
2018-09-14T12:35:47.091Z,21.81
2018-09-14T12:36:50.459Z,21.85
2018-09-14T12:37:53.856Z,21.84
2018-09-14T12:38:57.253Z,21.85
2018-09-14T12:40:00.685Z,21.85
2018-09-14T12:41:04.127Z,21.86
2018-09-14T12:42:07.567Z,21.82
2018-09-14T12:43:11.024Z,21.85
2018-09-14T12:44:14.436Z,21.89
2018-09-14T12:45:17.872Z,21.87
2018-09-14T12:46:21.272Z,21.87
2018-09-14T12:47:24.642Z,21.81
2018-09-14T12:48:28.027Z,21.84
2018-09-14T12:49:31.526Z,21.84
2018-09-14T12:50:34.990Z,21.84
2018-09-14T12:51:38.393Z,21.82
2018-09-14T12:52:41.864Z,21.83
2018-09-14T12:53:45.229Z,21.82
2018-09-14T12:54:48.670Z,21.80
2018-09-14T12:55:52.078Z,21.76
2018-09-14T12:56:55.512Z,21.80
2018-09-14T12:57:58.928Z,21.79
2018-09-14T12:59:02.365Z,21.79
2018-09-14T13:00:05.888Z,21.79
2018-09-14T13:01:09.290Z,21.78
2018-09-14T13:02:12.691Z,21.78
2018-09-14T13:03:16.103Z,21.78
2018-09-14T13:04:19.562Z,21.77
2018-09-14T13:05:23.031Z,21.77
2018-09-14T13:06:26.502Z,21.76
2018-09-14T13:07:29.916Z,21.77
2018-09-14T13:08:33.291Z,21.76
2018-09-14T13:09:37.298Z,21.76
2018-09-14T13:10:40.709Z,21.75
2018-09-14T13:11:44.133Z,21.68
2018-09-14T13:12:47.514Z,21.76
2018-09-14T13:13:50.929Z,21.76
2018-09-14T13:14:54.372Z,21.76
2018-09-14T13:15:57.713Z,21.76
2018-09-14T13:17:01.700Z,21.75
2018-09-14T13:18:05.114Z,21.75
2018-09-14T13:19:08.501Z,21.76
2018-09-14T13:20:11.916Z,21.79
2018-09-14T13:21:15.336Z,21.78
2018-09-14T13:22:18.734Z,21.77
2018-09-14T13:23:22.156Z,21.76
2018-09-14T13:24:25.566Z,21.77
2018-09-14T13:25:28.976Z,21.77
2018-09-14T13:26:32.365Z,21.76
2018-09-14T13:27:35.768Z,21.74
2018-09-14T13:28:39.233Z,21.75
2018-09-14T13:29:42.700Z,21.76
2018-09-14T13:30:46.108Z,21.75
2018-09-14T13:31:49.508Z,21.74
2018-09-14T13:32:53.793Z,21.75
2018-09-14T13:33:57.288Z,21.71
2018-09-14T13:35:00.607Z,21.75
2018-09-14T13:36:04.044Z,21.75
2018-09-14T13:37:07.480Z,21.75
2018-09-14T13:38:10.900Z,21.69